createdAt,value
2022-12-23T00:00:37.829Z,98855.13
2022-12-23T00:01:39.754Z,98841.50
2022-12-23T00:02:41.652Z,98846.69
2022-12-23T00:03:43.632Z,98844.94
2022-12-23T00:04:45.481Z,98840.63
2022-12-23T00:05:47.361Z,98839.25
2022-12-23T00:06:49.069Z,98841.09
2022-12-23T00:07:50.898Z,98829.66
2022-12-23T00:08:58.857Z,98849.66
2022-12-23T00:10:01.016Z,98847.72
2022-12-23T00:11:05.788Z,98842.53
2022-12-23T00:12:26.335Z,98846.47
2022-12-23T00:13:46.683Z,98843.06
2022-12-23T00:15:06.689Z,98851.53
2022-12-23T00:16:11.373Z,98851.81
2022-12-23T00:17:22.637Z,98854.56
2022-12-23T00:18:24.931Z,98854.34
2022-12-23T00:19:26.627Z,98847.34
2022-12-23T00:20:28.344Z,98846.16
2022-12-23T00:21:30.132Z,98846.09
2022-12-23T00:22:50.859Z,98856.63
2022-12-23T00:23:52.658Z,98855.34
2022-12-23T00:24:54.358Z,98860.66
2022-12-23T00:25:56.099Z,98860.66
2022-12-23T00:26:57.794Z,98853.44
2022-12-23T00:28:02.509Z,98850.56
2022-12-23T00:29:04.220Z,98843.25
2022-12-23T00:30:07.727Z,98856.50
2022-12-23T00:31:10.047Z,98849.38
2022-12-23T00:32:11.824Z,98851.25
2022-12-23T00:33:15.510Z,98852.13
2022-12-23T00:34:17.463Z,98848.28
2022-12-23T00:35:19.227Z,98848.03
2022-12-23T00:36:25.703Z,98852.34
2022-12-23T00:37:30.681Z,98853.97
2022-12-23T00:38:51.251Z,98845.50
2022-12-23T00:40:11.926Z,98846.94
2022-12-23T00:41:34.908Z,98842.09
2022-12-23T00:42:55.067Z,98843.22
2022-12-23T00:43:57.153Z,98828.19
2022-12-23T00:45:15.862Z,98844.94
2022-12-23T00:46:18.170Z,98837.72
2022-12-23T00:47:38.343Z,98835.78
2022-12-23T00:48:58.947Z,98846.44
2022-12-23T00:50:00.645Z,98835.09
2022-12-23T00:51:02.529Z,98839.16
2022-12-23T00:52:05.901Z,98841.91
2022-12-23T00:53:07.916Z,98832.72
2022-12-23T00:54:09.627Z,98840.75
2022-12-23T00:55:11.323Z,98835.72
2022-12-23T00:56:13.060Z,98821.28
2022-12-23T00:57:14.786Z,98833.94
2022-12-23T00:58:20.808Z,98839.81
2022-12-23T00:59:22.525Z,98832.28
2022-12-23T01:00:47.508Z,98827.78
2022-12-23T01:02:08.340Z,98843.03
2022-12-23T01:03:33.343Z,98832.38
2022-12-23T01:04:53.960Z,98840.78
2022-12-23T01:05:59.026Z,98847.19
2022-12-23T01:07:01.397Z,98838.44
2022-12-23T01:08:11.431Z,98823.03
2022-12-23T01:09:13.492Z,98829.28
2022-12-23T01:10:15.305Z,98823.94
2022-12-23T01:11:17.043Z,98821.88
2022-12-23T01:12:18.917Z,98811.75
2022-12-23T01:13:21.165Z,98818.81
2022-12-23T01:14:23.047Z,98820.84
2022-12-23T01:15:24.813Z,98815.09
2022-12-23T01:16:26.648Z,98807.31
2022-12-23T01:17:28.368Z,98801.53
2022-12-23T01:18:30.161Z,98820.38
2022-12-23T01:19:32.192Z,98810.50
2022-12-23T01:20:33.974Z,98807.09
2022-12-23T01:21:35.761Z,98801.88
2022-12-23T01:22:37.464Z,98795.88
2022-12-23T01:23:39.261Z,98800.03
2022-12-23T01:24:41.005Z,98796.31
2022-12-23T01:25:42.744Z,98803.00
2022-12-23T01:26:44.564Z,98795.34
2022-12-23T01:27:46.258Z,98809.53
2022-12-23T01:28:48.003Z,98801.59
2022-12-23T01:29:49.724Z,98800.78
2022-12-23T01:30:51.466Z,98790.75
2022-12-23T01:31:53.289Z,98809.84
2022-12-23T01:32:55.023Z,98802.03
2022-12-23T01:33:57.528Z,98804.03
2022-12-23T01:34:59.306Z,98811.00
2022-12-23T01:36:06.690Z,98815.78
2022-12-23T01:37:08.392Z,98803.06
2022-12-23T01:38:10.107Z,98805.38
2022-12-23T01:39:11.917Z,98793.94
2022-12-23T01:40:13.714Z,98808.63
2022-12-23T01:41:39.261Z,98802.63
2022-12-23T01:42:44.031Z,98806.72
2022-12-23T01:43:51.251Z,98786.13
2022-12-23T01:44:56.629Z,98805.59
2022-12-23T01:45:58.377Z,98805.41
2022-12-23T01:47:00.123Z,98804.44
2022-12-23T01:48:20.480Z,98806.09
2022-12-23T01:49:22.227Z,98804.44
2022-12-23T01:50:30.839Z,98805.75
2022-12-23T01:51:33.185Z,98791.91
2022-12-23T01:52:40.042Z,98806.09
2022-12-23T01:53:47.595Z,98790.00
2022-12-23T01:54:49.539Z,98781.44
2022-12-23T01:55:55.073Z,98783.00
2022-12-23T01:56:58.043Z,98786.28
2022-12-23T01:58:13.561Z,98781.28
2022-12-23T01:59:34.391Z,98782.88
2022-12-23T02:00:54.738Z,98778.81
2022-12-23T02:02:15.568Z,98787.00
2022-12-23T02:03:35.912Z,98781.13
2022-12-23T02:04:37.677Z,98772.16
2022-12-23T02:05:40.353Z,98794.66
2022-12-23T02:07:02.515Z,98790.44
2022-12-23T02:08:22.887Z,98794.38
2022-12-23T02:09:34.997Z,98798.28
2022-12-23T02:11:06.432Z,98793.41
2022-12-23T02:12:38.490Z,98787.53
2022-12-23T02:14:30.729Z,98793.69
2022-12-23T02:15:55.066Z,98791.09
2022-12-23T02:17:10.168Z,98785.91
2022-12-23T02:18:27.121Z,98794.38
2022-12-23T02:19:56.431Z,98791.09
2022-12-23T02:21:00.851Z,98785.91
2022-12-23T02:22:38.400Z,98791.09
2022-12-23T02:24:04.697Z,98781.66
2022-12-23T02:25:15.274Z,98786.03
2022-12-23T02:26:53.397Z,98782.91
2022-12-23T02:27:57.788Z,98782.63
2022-12-23T02:29:23.628Z,98777.56
2022-12-23T02:30:27.575Z,98777.72
2022-12-23T02:31:35.203Z,98775.50
2022-12-23T02:33:16.883Z,98778.75
2022-12-23T02:34:42.913Z,98780.41
2022-12-23T02:35:58.697Z,98775.50
2022-12-23T02:37:09.551Z,98770.97
2022-12-23T02:38:41.359Z,98776.31
2022-12-23T02:39:56.101Z,98775.97
2022-12-23T02:41:24.031Z,98787.22
2022-12-23T02:42:45.400Z,98783.16
2022-12-23T02:44:10.842Z,98768.28
2022-12-23T02:45:19.045Z,98780.69
2022-12-23T02:46:35.786Z,98776.16
2022-12-23T02:47:50.796Z,98771.94
2022-12-23T02:49:02.420Z,98770.00
2022-12-23T02:50:11.211Z,98769.81
2022-12-23T02:51:15.306Z,98757.78
2022-12-23T02:52:21.074Z,98768.69
2022-12-23T02:53:29.480Z,98768.56
2022-12-23T02:54:44.977Z,98760.69
2022-12-23T02:55:50.205Z,98753.88
2022-12-23T02:56:54.120Z,98759.22
2022-12-23T02:57:57.985Z,98753.03
2022-12-23T02:59:08.443Z,98750.59
2022-12-23T03:00:11.294Z,98767.44
2022-12-23T03:01:16.236Z,98727.63
2022-12-23T03:02:18.606Z,98757.31
2022-12-23T03:03:22.438Z,98761.47
2022-12-23T03:04:24.266Z,98764.59
2022-12-23T03:05:32.828Z,98761.97
2022-12-23T03:06:40.768Z,98762.94
2022-12-23T03:07:43.654Z,98766.22
2022-12-23T03:08:45.925Z,98751.88
2022-12-23T03:10:08.996Z,98759.06
2022-12-23T03:11:13.652Z,98764.22
2022-12-23T03:12:39.626Z,98766.50
2022-12-23T03:14:05.883Z,98766.88
2022-12-23T03:15:13.597Z,98771.41
2022-12-23T03:16:27.943Z,98756.78
2022-12-23T03:17:57.900Z,98760.38
2022-12-23T03:19:21.367Z,98764.47
2022-12-23T03:20:35.242Z,98760.72
2022-12-23T03:21:39.862Z,98759.53
2022-12-23T03:22:59.196Z,98757.88
2022-12-23T03:24:35.104Z,98752.16
2022-12-23T03:25:43.644Z,98761.59
2022-12-23T03:27:01.994Z,98753.31
2022-12-23T03:28:27.480Z,98752.03
2022-12-23T03:29:35.708Z,98759.97
2022-12-23T03:30:41.471Z,98756.09
2022-12-23T03:31:45.697Z,98740.44
2022-12-23T03:32:49.944Z,98748.97
2022-12-23T03:33:58.438Z,98740.03
2022-12-23T03:35:02.768Z,98741.19
2022-12-23T03:36:13.653Z,98738.59
2022-12-23T03:37:17.967Z,98732.38
2022-12-23T03:38:21.951Z,98734.69
2022-12-23T03:39:31.295Z,98719.69
2022-12-23T03:40:38.877Z,98739.75
2022-12-23T03:41:44.125Z,98731.19
2022-12-23T03:42:52.416Z,98734.84
2022-12-23T03:44:09.707Z,98740.19
2022-12-23T03:45:38.089Z,98739.75
2022-12-23T03:46:46.929Z,98730.75
2022-12-23T03:48:16.635Z,98746.41
2022-12-23T03:49:28.557Z,98749.16
2022-12-23T03:50:31.534Z,98756.66
2022-12-23T03:51:39.746Z,98756.81
2022-12-23T03:52:51.700Z,98752.25
2022-12-23T03:54:09.579Z,98763.75
2022-12-23T03:55:17.954Z,98763.09
2022-12-23T03:56:31.055Z,98757.69
2022-12-23T03:57:41.477Z,98757.19
2022-12-23T03:58:45.502Z,98771.06
2022-12-23T03:59:50.789Z,98760.78
2022-12-23T04:01:18.176Z,98760.97
2022-12-23T04:02:23.654Z,98771.06
2022-12-23T04:03:42.159Z,98778.03
2022-12-23T04:04:51.089Z,98774.94
2022-12-23T04:05:57.641Z,98769.75
2022-12-23T04:07:17.784Z,98764.69
2022-12-23T04:08:27.484Z,98765.44
2022-12-23T04:09:29.584Z,98759.66
2022-12-23T04:10:32.001Z,98743.03
2022-12-23T04:11:35.824Z,98760.38
2022-12-23T04:12:39.425Z,98757.63
2022-12-23T04:13:41.200Z,98764.97
2022-12-23T04:14:48.926Z,98757.03
2022-12-23T04:15:50.790Z,98766.81
2022-12-23T04:16:58.462Z,98762.94
2022-12-23T04:18:00.356Z,98756.41
2022-12-23T04:19:02.113Z,98753.16
2022-12-23T04:20:04.347Z,98764.59
2022-12-23T04:21:06.142Z,98761.16
2022-12-23T04:22:07.899Z,98756.94
2022-12-23T04:23:09.587Z,98746.91
2022-12-23T04:24:11.413Z,98758.00
2022-12-23T04:25:14.845Z,98743.34
2022-12-23T04:26:16.577Z,98755.44
2022-12-23T04:27:18.319Z,98760.34
2022-12-23T04:28:20.528Z,98743.34
2022-12-23T04:29:22.273Z,98760.63
2022-12-23T04:30:28.105Z,98765.25
2022-12-23T04:31:35.265Z,98756.63
2022-12-23T04:32:37.319Z,98751.56
2022-12-23T04:33:39.060Z,98759.25
2022-12-23T04:34:40.818Z,98756.50
2022-12-23T04:35:42.540Z,98757.47
2022-12-23T04:36:44.271Z,98754.22
2022-12-23T04:37:45.997Z,98740.19
2022-12-23T04:38:47.711Z,98748.44
2022-12-23T04:39:49.512Z,98750.28
2022-12-23T04:40:51.310Z,98751.84
2022-12-23T04:41:53.072Z,98748.75
2022-12-23T04:42:54.801Z,98743.19
2022-12-23T04:43:56.622Z,98736.00
2022-12-23T04:44:58.511Z,98710.00
2022-12-23T04:46:00.283Z,98738.97
2022-12-23T04:47:02.047Z,98738.50
2022-12-23T04:48:03.986Z,98743.13
2022-12-23T04:49:05.760Z,98747.88
2022-12-23T04:50:08.218Z,98740.00
2022-12-23T04:51:09.997Z,98747.00
2022-12-23T04:52:11.764Z,98725.38
2022-12-23T04:53:13.497Z,98731.91
2022-12-23T04:54:15.707Z,98740.78
2022-12-23T04:55:17.691Z,98737.44
2022-12-23T04:56:19.505Z,98733.06
2022-12-23T04:57:21.263Z,98748.03
2022-12-23T04:58:25.134Z,98757.06
2022-12-23T04:59:26.867Z,98750.09
2022-12-23T05:00:31.509Z,98754.47
2022-12-23T05:01:35.876Z,98750.59
2022-12-23T05:02:37.772Z,98753.19
2022-12-23T05:03:40.038Z,98752.75
2022-12-23T05:04:42.108Z,98751.59
2022-12-23T05:05:44.796Z,98751.31
2022-12-23T05:06:46.520Z,98747.38
2022-12-23T05:07:51.827Z,98748.56
2022-12-23T05:08:53.538Z,98732.88
2022-12-23T05:09:55.298Z,98739.28
2022-12-23T05:10:57.071Z,98746.84
2022-12-23T05:11:58.771Z,98759.97
2022-12-23T05:13:00.517Z,98759.50
2022-12-23T05:14:02.957Z,98764.94
2022-12-23T05:15:05.011Z,98762.28
2022-12-23T05:16:07.242Z,98747.50
2022-12-23T05:17:09.092Z,98774.09
2022-12-23T05:18:11.045Z,98772.91
2022-12-23T05:19:12.804Z,98775.97
2022-12-23T05:20:14.632Z,98782.34
2022-12-23T05:21:16.577Z,98762.66
2022-12-23T05:22:18.300Z,98772.31
2022-12-23T05:23:20.038Z,98760.56
2022-12-23T05:24:21.743Z,98766.28
2022-12-23T05:25:23.468Z,98771.84
2022-12-23T05:26:25.234Z,98765.97
2022-12-23T05:27:26.982Z,98755.88
2022-12-23T05:28:29.419Z,98768.97
2022-12-23T05:29:31.143Z,98764.13
2022-12-23T05:30:32.846Z,98748.53
2022-12-23T05:31:34.605Z,98755.59
2022-12-23T05:32:36.770Z,98775.97
2022-12-23T05:33:39.256Z,98771.94
2022-12-23T05:34:40.991Z,98765.47
2022-12-23T05:35:42.759Z,98765.91
2022-12-23T05:36:44.455Z,98766.34
2022-12-23T05:37:46.440Z,98781.75
2022-12-23T05:38:49.379Z,98768.22
2022-12-23T05:39:51.159Z,98774.59
2022-12-23T05:40:53.440Z,98779.19
2022-12-23T05:41:55.169Z,98777.03
2022-12-23T05:42:56.982Z,98763.03
2022-12-23T05:43:58.732Z,98778.25
2022-12-23T05:45:00.416Z,98771.53
2022-12-23T05:46:02.172Z,98763.84
2022-12-23T05:47:03.957Z,98775.78
2022-12-23T05:48:05.861Z,98782.25
2022-12-23T05:49:07.680Z,98759.91
2022-12-23T05:50:09.803Z,98776.06
2022-12-23T05:51:11.501Z,98776.75
2022-12-23T05:52:13.217Z,98782.31
2022-12-23T05:53:14.940Z,98750.47
2022-12-23T05:54:16.714Z,98784.31
2022-12-23T05:55:18.516Z,98780.06
2022-12-23T05:56:20.240Z,98784.97
2022-12-23T05:57:22.099Z,98775.78
2022-12-23T05:58:24.141Z,98780.69
2022-12-23T05:59:30.752Z,98777.13
2022-12-23T06:00:33.757Z,98791.28
2022-12-23T06:01:35.583Z,98789.50
2022-12-23T06:02:37.558Z,98775.50
2022-12-23T06:03:39.528Z,98786.63
2022-12-23T06:04:41.434Z,98781.13
2022-12-23T06:05:44.127Z,98789.25
2022-12-23T06:06:45.830Z,98779.19
2022-12-23T06:07:47.610Z,98786.66
2022-12-23T06:08:52.057Z,98788.97
2022-12-23T06:09:57.593Z,98790.59
2022-12-23T06:10:59.994Z,98786.47
2022-12-23T06:12:01.826Z,98785.34
2022-12-23T06:13:03.556Z,98793.16
2022-12-23T06:14:07.351Z,98794.28
2022-12-23T06:15:09.594Z,98795.63
2022-12-23T06:16:11.376Z,98798.00
2022-12-23T06:17:13.111Z,98794.72
2022-12-23T06:18:14.814Z,98785.28
2022-12-23T06:19:16.570Z,98798.03
2022-12-23T06:20:21.012Z,98802.78
2022-12-23T06:21:23.198Z,98805.25
2022-12-23T06:22:25.024Z,98795.00
2022-12-23T06:23:26.720Z,98790.09
2022-12-23T06:24:28.417Z,98794.31
2022-12-23T06:25:30.189Z,98791.03
2022-12-23T06:26:32.023Z,98802.78
2022-12-23T06:27:33.747Z,98791.19
2022-12-23T06:28:35.556Z,98799.06
2022-12-23T06:29:37.264Z,98790.16
2022-12-23T06:30:39.016Z,98797.00
2022-12-23T06:31:40.780Z,98793.56
2022-12-23T06:32:42.548Z,98799.66
2022-12-23T06:33:44.331Z,98805.03
2022-12-23T06:34:46.836Z,98793.34
2022-12-23T06:35:48.666Z,98791.41
2022-12-23T06:36:50.385Z,98796.81
2022-12-23T06:37:55.182Z,98780.50
2022-12-23T06:38:56.996Z,98800.59
2022-12-23T06:39:58.762Z,98791.97
2022-12-23T06:41:00.577Z,98790.72
2022-12-23T06:42:02.254Z,98790.38
2022-12-23T06:43:04.018Z,98806.56
2022-12-23T06:44:06.021Z,98802.97
2022-12-23T06:45:08.416Z,98798.44
2022-12-23T06:46:10.174Z,98796.19
2022-12-23T06:47:11.907Z,98790.97
2022-12-23T06:48:13.694Z,98777.94
2022-12-23T06:49:15.443Z,98792.13
2022-12-23T06:50:17.210Z,98782.50
2022-12-23T06:51:19.317Z,98782.69
2022-12-23T06:52:23.177Z,98793.28
2022-12-23T06:53:25.152Z,98785.00
2022-12-23T06:54:26.869Z,98796.13
2022-12-23T06:55:28.595Z,98791.56
2022-12-23T06:56:30.388Z,98791.28
2022-12-23T06:57:32.122Z,98781.16
2022-12-23T06:58:34.036Z,98782.34
2022-12-23T06:59:35.759Z,98789.19
2022-12-23T07:00:37.501Z,98786.56
2022-12-23T07:01:40.736Z,98790.16
2022-12-23T07:02:42.742Z,98791.47
2022-12-23T07:03:44.669Z,98797.53
2022-12-23T07:04:46.552Z,98791.69
2022-12-23T07:05:49.403Z,98796.72
2022-12-23T07:06:51.119Z,98797.06
2022-12-23T07:07:52.837Z,98805.56
2022-12-23T07:08:54.600Z,98793.81
2022-12-23T07:09:56.340Z,98803.25
2022-12-23T07:11:02.303Z,98802.44
2022-12-23T07:12:04.318Z,98811.44
2022-12-23T07:13:06.072Z,98807.50
2022-12-23T07:14:07.826Z,98807.50
2022-12-23T07:15:10.057Z,98806.53
2022-12-23T07:16:11.777Z,98802.13
2022-12-23T07:17:13.618Z,98813.88
2022-12-23T07:18:15.412Z,98806.84
2022-12-23T07:19:17.182Z,98805.03
2022-12-23T07:20:18.884Z,98802.22
2022-12-23T07:21:28.989Z,98805.53
2022-12-23T07:22:31.349Z,98801.97
2022-12-23T07:23:33.068Z,98800.84
2022-12-23T07:24:34.775Z,98807.25
2022-12-23T07:25:36.467Z,98811.94
2022-12-23T07:26:38.265Z,98810.66
2022-12-23T07:27:39.949Z,98810.66
2022-12-23T07:28:46.867Z,98822.03
2022-12-23T07:29:48.595Z,98801.66
2022-12-23T07:30:50.387Z,98822.78
2022-12-23T07:31:53.211Z,98804.09
2022-12-23T07:32:55.056Z,98826.72
2022-12-23T07:33:56.763Z,98823.72
2022-12-23T07:34:58.518Z,98822.34
2022-12-23T07:36:00.581Z,98822.53
2022-12-23T07:37:02.327Z,98821.63
2022-12-23T07:38:04.192Z,98823.72
2022-12-23T07:39:06.077Z,98819.88
2022-12-23T07:40:10.112Z,98823.34
2022-12-23T07:41:11.926Z,98825.31
2022-12-23T07:42:43.293Z,98814.16
2022-12-23T07:43:35.445Z,98819.53
2022-12-23T07:44:37.161Z,98820.59
2022-12-23T07:45:38.867Z,98814.41
2022-12-23T07:46:40.736Z,98818.28
2022-12-23T07:47:43.212Z,98811.38
2022-12-23T07:48:44.918Z,98802.13
2022-12-23T07:49:46.678Z,98796.50
2022-12-23T07:50:48.579Z,98808.41
2022-12-23T07:51:50.455Z,98810.59
2022-12-23T07:52:52.968Z,98798.16
2022-12-23T07:53:54.740Z,98805.09
2022-12-23T07:54:56.449Z,98803.31
2022-12-23T07:55:58.796Z,98808.41
2022-12-23T07:57:00.490Z,98804.19
2022-12-23T07:58:02.719Z,98817.09
2022-12-23T07:59:04.454Z,98814.59
2022-12-23T08:00:07.738Z,98817.16
2022-12-23T08:01:09.663Z,98811.63
2022-12-23T08:02:11.684Z,98817.94
2022-12-23T08:03:13.771Z,98817.88
2022-12-23T08:04:15.559Z,98824.81
2022-12-23T08:05:17.551Z,98827.50
2022-12-23T08:06:19.469Z,98825.63
2022-12-23T08:07:21.179Z,98823.72
2022-12-23T08:08:22.914Z,98824.38
2022-12-23T08:09:24.654Z,98819.88
2022-12-23T08:10:26.480Z,98824.44
2022-12-23T08:11:28.187Z,98815.72
2022-12-23T08:12:30.018Z,98827.16
2022-12-23T08:13:34.039Z,98820.47
2022-12-23T08:14:35.758Z,98822.88
2022-12-23T08:15:37.458Z,98810.13
2022-12-23T08:16:43.577Z,98818.78
2022-12-23T08:17:46.068Z,98829.56
2022-12-23T08:18:47.761Z,98818.34
2022-12-23T08:19:49.711Z,98810.91
2022-12-23T08:21:06.044Z,98823.84
2022-12-23T08:22:07.745Z,98819.63
2022-12-23T08:23:09.452Z,98807.53
2022-12-23T08:24:11.168Z,98817.31
2022-12-23T08:25:12.880Z,98806.66
2022-12-23T08:26:17.101Z,98813.56
2022-12-23T08:27:18.836Z,98808.53
2022-12-23T08:28:20.585Z,98812.78
2022-12-23T08:29:22.309Z,98817.63
2022-12-23T08:30:24.059Z,98819.59
2022-12-23T08:31:32.086Z,98813.03
2022-12-23T08:32:33.866Z,98821.50
2022-12-23T08:33:38.383Z,98815.66
2022-12-23T08:34:40.180Z,98818.06
2022-12-23T08:35:41.889Z,98814.28
2022-12-23T08:36:43.601Z,98823.31
2022-12-23T08:37:45.367Z,98811.66
2022-12-23T08:38:47.405Z,98819.75
2022-12-23T08:39:49.778Z,98814.41
2022-12-23T08:40:51.490Z,98818.69
2022-12-23T08:41:53.788Z,98825.38
2022-12-23T08:42:55.523Z,98828.84
2022-12-23T08:43:57.833Z,98823.78
2022-12-23T08:45:01.098Z,98828.56
2022-12-23T08:46:03.435Z,98818.59
2022-12-23T08:47:05.280Z,98814.47
2022-12-23T08:48:07.133Z,98821.31
2022-12-23T08:49:09.582Z,98822.00
2022-12-23T08:50:12.152Z,98821.94
2022-12-23T08:51:16.848Z,98817.06
2022-12-23T08:52:18.600Z,98813.06
2022-12-23T08:53:20.306Z,98821.06
2022-12-23T08:54:23.874Z,98816.31
2022-12-23T08:55:25.725Z,98825.72
2022-12-23T08:56:32.736Z,98822.88
2022-12-23T08:57:34.593Z,98824.50
2022-12-23T08:58:39.074Z,98814.50
2022-12-23T08:59:40.850Z,98816.44
2022-12-23T09:00:42.630Z,98819.63
2022-12-23T09:01:44.664Z,98809.13
2022-12-23T09:02:46.610Z,98806.78
2022-12-23T09:03:48.790Z,98810.00
2022-12-23T09:04:50.572Z,98795.00
2022-12-23T09:05:52.276Z,98805.88
2022-12-23T09:06:54.034Z,98803.63
2022-12-23T09:07:55.842Z,98807.59
2022-12-23T09:08:58.651Z,98802.63
2022-12-23T09:10:00.430Z,98800.66
2022-12-23T09:11:02.369Z,98795.91
2022-12-23T09:12:04.678Z,98799.38
2022-12-23T09:13:06.410Z,98791.41
2022-12-23T09:14:10.330Z,98790.31
2022-12-23T09:15:12.118Z,98791.13
2022-12-23T09:16:14.378Z,98792.72
2022-12-23T09:17:17.756Z,98793.66
2022-12-23T09:18:19.692Z,98784.19
2022-12-23T09:19:21.420Z,98782.81
2022-12-23T09:20:23.149Z,98783.88
2022-12-23T09:21:24.876Z,98778.75
2022-12-23T09:22:26.597Z,98786.59
2022-12-23T09:23:28.611Z,98781.75
2022-12-23T09:24:30.466Z,98789.03
2022-12-23T09:25:33.436Z,98786.59
2022-12-23T09:26:35.161Z,98784.31
2022-12-23T09:27:36.851Z,98786.84
2022-12-23T09:28:39.849Z,98773.72
2022-12-23T09:29:41.565Z,98769.19
2022-12-23T09:30:43.345Z,98770.50
2022-12-23T09:31:45.105Z,98775.09
2022-12-23T09:32:46.923Z,98773.59
2022-12-23T09:33:51.312Z,98777.06
2022-12-23T09:34:53.071Z,98770.25
2022-12-23T09:35:59.980Z,98766.78
2022-12-23T09:37:03.051Z,98770.25
2022-12-23T09:38:05.089Z,98762.19
2022-12-23T09:39:06.799Z,98764.59
2022-12-23T09:40:12.312Z,98761.38
2022-12-23T09:42:01.636Z,98763.66
2022-12-23T09:43:17.056Z,98766.06
2022-12-23T09:44:32.571Z,98766.38
2022-12-23T09:45:52.728Z,98769.50
2022-12-23T09:46:58.714Z,98751.34
2022-12-23T09:48:01.147Z,98769.38
2022-12-23T09:49:05.455Z,98771.81
2022-12-23T09:50:26.579Z,98756.72
2022-12-23T09:51:30.727Z,98754.44
2022-12-23T09:53:08.026Z,98756.69
2022-12-23T09:54:29.072Z,98760.22
2022-12-23T09:56:13.176Z,98759.66
2022-12-23T09:57:17.493Z,98757.22
2022-12-23T09:58:30.141Z,98757.22
2022-12-23T10:00:18.639Z,98752.91
2022-12-23T10:01:44.651Z,98752.69
2022-12-23T10:02:59.065Z,98762.16
2022-12-23T10:04:16.127Z,98758.19
2022-12-23T10:05:28.047Z,98753.78
2022-12-23T10:06:30.982Z,98741.88
2022-12-23T10:07:51.641Z,98756.19
2022-12-23T10:08:58.340Z,98753.47
2022-12-23T10:10:08.229Z,98751.03
2022-12-23T10:11:20.539Z,98753.72
2022-12-23T10:12:45.236Z,98751.56
2022-12-23T10:14:00.832Z,98737.75
2022-12-23T10:15:16.830Z,98741.94
2022-12-23T10:16:41.557Z,98750.84
2022-12-23T10:17:44.718Z,98749.44
2022-12-23T10:19:01.264Z,98744.88
2022-12-23T10:20:06.581Z,98716.19
2022-12-23T10:21:16.404Z,98736.91
2022-12-23T10:22:44.171Z,98732.22
2022-12-23T10:23:52.350Z,98736.06
2022-12-23T10:24:57.878Z,98738.47
2022-12-23T10:26:01.458Z,98725.28
2022-12-23T10:27:12.670Z,98730.31
2022-12-23T10:28:14.286Z,98725.91
2022-12-23T10:29:32.910Z,98731.16
2022-12-23T10:32:17.737Z,98729.53
2022-12-23T10:33:24.454Z,98731.59
2022-12-23T10:34:47.365Z,98726.28
2022-12-23T10:35:52.309Z,98723.28
2022-12-23T10:37:07.554Z,98727.28
2022-12-23T10:38:30.958Z,98723.75
2022-12-23T10:39:41.022Z,98723.38
2022-12-23T10:41:13.135Z,98722.38
2022-12-23T10:42:20.765Z,98721.78
2022-12-23T10:43:25.327Z,98721.91
2022-12-23T10:44:57.773Z,98732.06
2022-12-23T10:46:03.073Z,98726.06
2022-12-23T10:47:19.810Z,98726.97
2022-12-23T10:48:52.631Z,98728.50
2022-12-23T10:50:12.522Z,98724.44
2022-12-23T10:51:21.325Z,98730.44
2022-12-23T10:52:27.488Z,98721.91
2022-12-23T10:53:38.354Z,98721.56
2022-12-23T10:54:42.318Z,98729.84
2022-12-23T10:55:45.328Z,98719.13
2022-12-23T10:56:47.643Z,98715.88
2022-12-23T10:57:50.775Z,98723.81
2022-12-23T10:58:59.529Z,98721.78
2022-12-23T11:00:01.296Z,98715.63
2022-12-23T11:01:14.929Z,98721.06
2022-12-23T11:02:49.942Z,98726.88
2022-12-23T11:04:07.615Z,98717.47
2022-12-23T11:05:15.449Z,98718.22
2022-12-23T11:06:17.339Z,98725.78
2022-12-23T11:07:45.507Z,98721.88
2022-12-23T11:08:48.283Z,98708.25
2022-12-23T11:10:01.199Z,98712.69
2022-12-23T11:11:03.402Z,98720.53
2022-12-23T11:12:08.512Z,98719.00
2022-12-23T11:13:10.289Z,98712.09
2022-12-23T11:14:30.815Z,98705.03
2022-12-23T11:15:38.922Z,98713.44
2022-12-23T11:16:46.958Z,98710.47
2022-12-23T11:18:00.708Z,98712.78
2022-12-23T11:19:15.262Z,98707.81
2022-12-23T11:20:19.205Z,98713.03
2022-12-23T11:21:21.541Z,98709.69
2022-12-23T11:22:26.407Z,98706.78
2022-12-23T11:23:33.743Z,98711.06
2022-12-23T11:24:41.330Z,98708.97
2022-12-23T11:25:46.451Z,98701.97
2022-12-23T11:26:58.607Z,98703.09
2022-12-23T11:28:06.227Z,98708.97
2022-12-23T11:29:12.799Z,98703.41
2022-12-23T11:30:19.435Z,98706.88
2022-12-23T11:31:32.603Z,98700.06
2022-12-23T11:32:34.675Z,98699.38
2022-12-23T11:33:40.174Z,98711.47
2022-12-23T11:34:45.929Z,98709.59
2022-12-23T11:35:47.720Z,98692.97
2022-12-23T11:37:06.988Z,98678.06
2022-12-23T11:38:14.341Z,98698.47
2022-12-23T11:39:48.691Z,98700.31
2022-12-23T11:40:50.482Z,98680.00
2022-12-23T11:42:02.142Z,98673.34
2022-12-23T11:43:11.860Z,98693.84
2022-12-23T11:44:27.382Z,98699.97
2022-12-23T11:45:33.191Z,98696.75
2022-12-23T11:46:35.678Z,98700.09
2022-12-23T11:47:41.703Z,98689.03
2022-12-23T11:48:43.757Z,98689.97
2022-12-23T11:49:57.618Z,98686.97
2022-12-23T11:51:01.760Z,98687.53
2022-12-23T11:52:06.492Z,98685.56
2022-12-23T11:53:21.353Z,98687.63
2022-12-23T11:54:23.074Z,98681.69
2022-12-23T11:55:29.888Z,98689.97
2022-12-23T11:56:38.926Z,98676.50
2022-12-23T11:57:48.530Z,98684.94
2022-12-23T11:58:55.162Z,98682.06
2022-12-23T12:00:00.988Z,98677.78
2022-12-23T12:01:14.819Z,98684.06
2022-12-23T12:02:39.923Z,98674.09
2022-12-23T12:03:51.286Z,98653.31
2022-12-23T12:05:00.569Z,98678.59
2022-12-23T12:06:06.995Z,98676.59
2022-12-23T12:07:14.557Z,98673.97
2022-12-23T12:08:21.384Z,98666.34
2022-12-23T12:09:24.315Z,98676.72
2022-12-23T12:10:29.265Z,98670.84
2022-12-23T12:11:44.115Z,98678.22
2022-12-23T12:12:49.954Z,98674.88
2022-12-23T12:14:01.596Z,98671.25
2022-12-23T12:15:03.768Z,98670.13
2022-12-23T12:16:36.552Z,98671.59
2022-12-23T12:17:47.129Z,98663.66
2022-12-23T12:18:55.505Z,98666.44
2022-12-23T12:20:04.916Z,98673.56
2022-12-23T12:21:14.434Z,98671.16
2022-12-23T12:22:43.674Z,98670.78
2022-12-23T12:24:08.319Z,98673.06
2022-12-23T12:25:17.952Z,98677.34
2022-12-23T12:26:33.127Z,98677.78
2022-12-23T12:27:39.439Z,98675.38
2022-12-23T12:28:44.760Z,98669.72
2022-12-23T12:29:55.975Z,98671.56
2022-12-23T12:31:03.367Z,98679.28
2022-12-23T12:32:15.855Z,98680.09
2022-12-23T12:33:33.730Z,98666.94
2022-12-23T12:35:13.831Z,98670.75
2022-12-23T12:36:36.091Z,98670.75
2022-12-23T12:37:51.584Z,98663.69
2022-12-23T12:38:55.925Z,98666.34
2022-12-23T12:40:03.677Z,98661.50
2022-12-23T12:41:14.508Z,98668.81
2022-12-23T12:42:26.910Z,98665.00
2022-12-23T12:43:34.550Z,98660.66
2022-12-23T12:45:10.408Z,98658.00
2022-12-23T12:46:34.337Z,98662.38
2022-12-23T12:48:02.104Z,98665.38
2022-12-23T12:49:29.606Z,98654.97
2022-12-23T12:50:34.739Z,98656.72
2022-12-23T12:51:42.617Z,98660.53
2022-12-23T12:52:44.727Z,98654.56
2022-12-23T12:54:05.498Z,98652.53
2022-12-23T12:55:23.489Z,98658.03
2022-12-23T12:56:32.988Z,98650.47
2022-12-23T12:57:36.730Z,98655.94
2022-12-23T12:58:40.497Z,98646.38
2022-12-23T12:59:44.866Z,98644.44
2022-12-23T13:01:12.016Z,98636.97
2022-12-23T13:02:36.236Z,98646.41
2022-12-23T13:04:05.746Z,98643.34
2022-12-23T13:05:19.832Z,98655.81
2022-12-23T13:06:34.606Z,98652.31
2022-12-23T13:08:06.864Z,98653.34
2022-12-23T13:09:27.194Z,98661.16
2022-12-23T13:10:44.702Z,98650.72
2022-12-23T13:12:01.159Z,98654.19